createdAt,value
2017-12-13T00:01:22.493Z,-0.70
2017-12-13T00:03:51.416Z,-0.70
2017-12-13T00:06:28.362Z,-0.50
2017-12-13T00:08:56.380Z,-0.50
2017-12-13T00:11:24.404Z,-0.40
2017-12-13T00:13:59.940Z,-0.40
2017-12-13T00:16:33.044Z,-0.40
2017-12-13T00:19:01.084Z,-0.30
2017-12-13T00:21:29.104Z,-0.30
2017-12-13T00:23:57.892Z,-0.20
2017-12-13T00:26:26.696Z,-0.20
2017-12-13T00:28:54.728Z,-0.20
2017-12-13T00:31:22.747Z,-0.10
2017-12-13T00:33:50.780Z,-0.10
2017-12-13T00:36:21.492Z,-0.30
2017-12-13T00:38:50.492Z,-0.30
2017-12-13T00:41:18.540Z,-0.50
2017-12-13T00:43:58.470Z,-0.60
2017-12-13T00:46:27.500Z,-0.80
2017-12-13T00:48:57.507Z,-0.90
2017-12-13T00:51:26.428Z,-1.00
2017-12-13T00:54:00.940Z,-1.30
2017-12-13T00:56:34.744Z,-1.30
2017-12-13T00:59:03.727Z,-1.40
2017-12-13T01:01:35.272Z,-1.40
2017-12-13T01:04:07.047Z,-1.30
2017-12-13T01:06:38.812Z,-1.20
2017-12-13T01:09:14.256Z,-1.20
2017-12-13T01:11:44.964Z,-1.30
2017-12-13T01:14:12.984Z,-1.30
2017-12-13T01:16:41.884Z,-1.20
2017-12-13T01:19:09.904Z,-1.20
2017-12-13T01:21:38.888Z,-1.10
2017-12-13T01:24:14.348Z,-1.00
2017-12-13T01:26:42.368Z,-1.00
2017-12-13T01:29:10.387Z,-1.10
2017-12-13T01:31:39.206Z,-1.20
2017-12-13T01:34:07.220Z,-1.20
2017-12-13T01:36:35.248Z,-1.20
2017-12-13T01:39:05.167Z,-1.20
2017-12-13T01:41:35.081Z,-1.30
2017-12-13T01:44:03.100Z,-1.30
2017-12-13T01:46:34.151Z,-1.30
2017-12-13T01:49:03.063Z,-1.40
2017-12-13T01:51:31.087Z,-1.40
2017-12-13T01:54:03.582Z,-1.50
2017-12-13T01:56:35.427Z,-1.50
2017-12-13T01:59:07.092Z,-1.60
2017-12-13T02:01:35.115Z,-1.60
2017-12-13T02:04:05.039Z,-1.50
2017-12-13T02:06:34.067Z,-1.40
2017-12-13T02:09:03.023Z,-1.20
2017-12-13T02:11:31.099Z,-1.20
2017-12-13T02:14:02.912Z,-1.00
2017-12-13T02:16:31.699Z,-0.90
2017-12-13T02:19:00.496Z,-0.80
2017-12-13T02:21:33.246Z,-0.80
2017-12-13T02:24:01.268Z,-0.80
2017-12-13T02:26:33.819Z,-0.80
2017-12-13T02:29:01.809Z,-0.80
2017-12-13T02:31:29.823Z,-0.80
2017-12-13T02:33:57.871Z,-1.00
2017-12-13T02:36:26.675Z,-1.30
2017-12-13T02:38:54.695Z,-1.30
2017-12-13T02:41:22.726Z,-1.50
2017-12-13T02:43:50.748Z,-1.60
2017-12-13T02:46:21.947Z,-1.60
2017-12-13T02:48:54.704Z,-1.60
2017-12-13T02:51:22.739Z,-1.60
2017-12-13T02:53:54.548Z,-1.60
2017-12-13T02:56:23.546Z,-1.50
2017-12-13T02:58:51.570Z,-1.50
2017-12-13T03:01:21.492Z,-1.50
2017-12-13T03:03:49.523Z,-1.40
2017-12-13T03:06:21.815Z,-1.60
2017-12-13T03:08:50.594Z,-1.70
2017-12-13T03:11:19.535Z,-1.70
2017-12-13T03:13:48.519Z,-1.90
2017-12-13T03:16:16.567Z,-1.90
2017-12-13T03:18:44.587Z,-1.90
2017-12-13T03:21:18.058Z,-1.90
2017-12-13T03:23:46.087Z,-1.90
2017-12-13T03:26:15.015Z,-1.90
2017-12-13T03:28:43.067Z,-2.00
2017-12-13T03:31:11.083Z,-2.00
2017-12-13T03:33:39.875Z,-2.20
2017-12-13T03:36:09.582Z,-2.20
2017-12-13T03:38:40.282Z,-2.30
2017-12-13T03:41:08.307Z,-2.30
2017-12-13T03:43:36.331Z,-2.40
2017-12-13T03:46:05.251Z,-2.40
2017-12-13T03:48:37.927Z,-2.40
2017-12-13T03:51:06.707Z,-2.50
2017-12-13T03:53:35.527Z,-2.60
2017-12-13T03:56:03.571Z,-2.60
2017-12-13T03:58:32.363Z,-2.60
2017-12-13T04:01:00.391Z,-2.70
2017-12-13T04:03:28.419Z,-2.60
2017-12-13T04:05:56.446Z,-2.60
2017-12-13T04:08:25.426Z,-2.70
2017-12-13T04:10:53.462Z,-2.70
2017-12-13T04:13:28.287Z,-2.60
2017-12-13T04:15:57.334Z,-2.50
2017-12-13T04:18:26.250Z,-2.50
2017-12-13T04:20:54.278Z,-2.50
2017-12-13T04:23:22.306Z,-2.50
2017-12-13T04:25:50.343Z,-2.50
2017-12-13T04:28:19.123Z,-2.60
2017-12-13T04:30:48.918Z,-2.60
2017-12-13T04:33:17.903Z,-2.70
2017-12-13T04:35:45.930Z,-2.70
2017-12-13T04:38:13.987Z,-2.70
2017-12-13T04:40:42.018Z,-2.70
2017-12-13T04:43:10.036Z,-2.80
2017-12-13T04:45:38.087Z,-2.80
2017-12-13T04:48:06.882Z,-2.60
2017-12-13T04:50:34.907Z,-2.60
2017-12-13T04:53:03.926Z,-2.70
2017-12-13T04:55:32.814Z,-2.70
2017-12-13T04:58:00.822Z,-2.70
2017-12-13T05:00:29.075Z,-2.70
2017-12-13T05:02:59.771Z,-2.80
2017-12-13T05:05:31.031Z,-2.80
2017-12-13T05:07:59.054Z,-2.90
2017-12-13T05:10:27.090Z,-2.90
2017-12-13T05:13:01.399Z,-2.90
2017-12-13T05:15:32.102Z,-2.90
2017-12-13T05:18:00.130Z,-2.90
2017-12-13T05:20:30.055Z,-2.80
2017-12-13T05:23:03.794Z,-2.90
2017-12-13T05:25:31.841Z,-2.90
2017-12-13T05:28:01.606Z,-2.80
2017-12-13T05:30:30.398Z,-2.80
2017-12-13T05:33:00.190Z,-2.70
2017-12-13T05:35:30.906Z,-2.70
2017-12-13T05:38:03.718Z,-2.80
2017-12-13T05:40:34.418Z,-2.70
2017-12-13T05:43:04.450Z,-2.70
2017-12-13T05:45:37.114Z,-2.70
2017-12-13T05:48:05.157Z,-2.70
2017-12-13T05:50:33.182Z,-2.70
2017-12-13T05:53:02.974Z,-2.70
2017-12-13T05:55:31.990Z,-2.70
2017-12-13T05:58:02.730Z,-2.90
2017-12-13T06:00:31.541Z,-3.10
2017-12-13T06:03:03.538Z,-3.20
2017-12-13T06:05:35.430Z,-3.20
2017-12-13T06:08:04.226Z,-3.40
2017-12-13T06:10:37.802Z,-3.40
2017-12-13T06:13:09.846Z,-3.40
2017-12-13T06:15:38.845Z,-3.50
2017-12-13T06:18:09.610Z,-3.60
2017-12-13T06:20:39.410Z,-3.50
2017-12-13T06:23:08.197Z,-3.50
2017-12-13T06:25:37.994Z,-3.50
2017-12-13T06:28:06.046Z,-3.60
2017-12-13T06:30:34.074Z,-3.50
2017-12-13T06:33:02.103Z,-3.50
2017-12-13T06:35:30.141Z,-3.50
2017-12-13T06:38:00.825Z,-3.50
2017-12-13T06:40:30.633Z,-3.50
2017-12-13T06:43:01.445Z,-3.60
2017-12-13T06:45:30.449Z,-3.60
2017-12-13T06:48:00.180Z,-3.50
2017-12-13T06:50:28.961Z,-3.50
2017-12-13T06:52:59.681Z,-3.40
2017-12-13T06:55:28.657Z,-3.40
2017-12-13T06:57:58.681Z,-3.40
2017-12-13T07:00:26.717Z,-3.30
2017-12-13T07:02:57.877Z,-3.30
2017-12-13T07:05:25.921Z,-3.20
2017-12-13T07:07:55.861Z,-3.10
2017-12-13T07:10:24.661Z,-3.00
2017-12-13T07:12:53.661Z,-3.00
2017-12-13T07:15:21.694Z,-2.90
2017-12-13T07:17:49.713Z,-2.90
2017-12-13T07:20:18.517Z,-2.80
2017-12-13T07:22:47.309Z,-2.80
2017-12-13T07:25:15.333Z,-2.80
2017-12-13T07:27:44.361Z,-2.70
2017-12-13T07:30:14.145Z,-2.00
2017-12-13T07:32:43.141Z,-2.00
2017-12-13T07:35:13.165Z,-1.80
2017-12-13T07:37:43.081Z,-1.50
2017-12-13T07:40:12.061Z,-1.60
2017-12-13T07:42:41.069Z,-1.60
2017-12-13T07:45:11.789Z,-1.80
2017-12-13T07:47:39.813Z,-1.90
2017-12-13T07:50:08.773Z,-2.00
2017-12-13T07:52:37.572Z,-2.00
2017-12-13T07:55:06.361Z,-1.90
2017-12-13T07:57:34.438Z,-1.90
2017-12-13T08:00:02.429Z,-1.60
2017-12-13T08:02:30.473Z,-1.30
2017-12-13T08:04:58.578Z,-0.80
2017-12-13T08:07:27.345Z,-0.50
2017-12-13T08:09:56.392Z,-0.50
2017-12-13T08:12:24.649Z,-0.70
2017-12-13T08:14:52.696Z,-0.60
2017-12-13T08:17:20.718Z,-0.60
2017-12-13T08:19:49.525Z,1.00
2017-12-13T08:22:17.597Z,1.00
2017-12-13T08:24:45.617Z,1.30
2017-12-13T08:27:13.656Z,0.70
2017-12-13T08:29:41.674Z,0.40
2017-12-13T08:32:09.689Z,1.30
2017-12-13T08:34:37.732Z,1.70
2017-12-13T08:37:06.524Z,2.20
2017-12-13T08:39:35.309Z,2.80
2017-12-13T08:42:06.025Z,3.30
2017-12-13T08:44:36.025Z,3.30
2017-12-13T08:47:05.579Z,3.90
2017-12-13T08:49:33.589Z,3.90
2017-12-13T08:52:03.617Z,4.10
2017-12-13T08:54:31.662Z,4.30
2017-12-13T08:56:59.685Z,4.50
2017-12-13T08:59:32.461Z,5.30
2017-12-13T09:02:04.289Z,5.60
2017-12-13T09:04:36.940Z,5.50
2017-12-13T09:07:09.505Z,5.90
2017-12-13T09:09:37.550Z,6.40
2017-12-13T09:12:10.185Z,6.80
2017-12-13T09:14:38.228Z,6.70
2017-12-13T09:17:06.249Z,6.90
2017-12-13T09:19:36.164Z,6.80
2017-12-13T09:22:04.210Z,6.70
2017-12-13T09:24:35.373Z,7.30
2017-12-13T09:27:05.309Z,7.60
2017-12-13T09:29:34.104Z,9.10
2017-12-13T09:32:02.140Z,9.10
2017-12-13T09:34:30.168Z,8.90
2017-12-13T09:36:58.188Z,8.90
2017-12-13T09:39:29.225Z,9.60
2017-12-13T09:42:03.780Z,10.70
2017-12-13T09:44:36.823Z,11.10
2017-12-13T09:47:05.752Z,11.20
2017-12-13T09:49:38.296Z,10.60
2017-12-13T09:52:10.056Z,10.50
2017-12-13T09:54:39.056Z,10.90
2017-12-13T09:57:07.849Z,12.30
2017-12-13T09:59:36.707Z,12.70
2017-12-13T10:02:10.240Z,12.50
2017-12-13T10:04:39.024Z,12.10
2017-12-13T10:07:11.080Z,11.90
2017-12-13T10:09:40.009Z,11.90
2017-12-13T10:12:08.024Z,11.70
2017-12-13T10:14:36.077Z,11.80
2017-12-13T10:17:06.112Z,11.90
2017-12-13T10:19:36.056Z,12.30
2017-12-13T10:22:06.764Z,11.10
2017-12-13T10:24:35.777Z,11.10
2017-12-13T10:27:04.580Z,11.20
2017-12-13T10:29:34.256Z,11.10
2017-12-13T10:32:14.500Z,11.10
2017-12-13T10:34:43.492Z,11.00
2017-12-13T10:37:12.488Z,11.40
2017-12-13T10:39:47.924Z,11.90
2017-12-13T10:42:19.896Z,11.80
2017-12-13T10:44:56.468Z,11.60
2017-12-13T10:47:24.496Z,11.50
2017-12-13T10:49:52.512Z,11.70
2017-12-13T10:52:22.457Z,12.20
2017-12-13T10:54:52.224Z,11.20
2017-12-13T10:57:21.134Z,11.20
2017-12-13T10:59:50.064Z,10.70
2017-12-13T11:02:18.992Z,10.90
2017-12-13T11:04:47.016Z,11.30
2017-12-13T11:07:17.820Z,12.20
2017-12-13T11:09:45.839Z,12.10
2017-12-13T11:12:13.868Z,12.90
2017-12-13T11:14:44.600Z,11.80
2017-12-13T11:17:12.644Z,11.70
2017-12-13T11:19:46.744Z,12.00
2017-12-13T11:22:17.800Z,11.70
2017-12-13T11:24:56.308Z,11.50
2017-12-13T11:27:25.224Z,11.40
2017-12-13T11:30:03.064Z,11.50
2017-12-13T11:32:36.188Z,11.90
2017-12-13T11:35:04.228Z,11.50
2017-12-13T11:37:32.248Z,11.20
2017-12-13T11:40:05.508Z,11.00
2017-12-13T11:42:35.440Z,11.50
2017-12-13T11:45:10.228Z,11.80
2017-12-13T11:47:40.128Z,11.00
2017-12-13T11:50:08.152Z,10.80
2017-12-13T11:52:40.036Z,12.50
2017-12-13T11:55:09.008Z,12.40
2017-12-13T11:57:37.023Z,11.90
2017-12-13T12:00:05.051Z,11.30
2017-12-13T12:02:33.068Z,11.80
2017-12-13T12:05:01.984Z,12.10
2017-12-13T12:07:30.012Z,12.20
2017-12-13T12:10:05.268Z,11.40
2017-12-13T12:12:35.199Z,11.40
2017-12-13T12:15:07.928Z,11.10
2017-12-13T12:17:37.855Z,11.10
2017-12-13T12:20:14.231Z,12.40
2017-12-13T12:22:42.264Z,12.40
2017-12-13T12:25:16.119Z,12.30
2017-12-13T12:27:44.143Z,11.80
2017-12-13T12:30:13.059Z,11.90
2017-12-13T12:32:41.859Z,10.50
2017-12-13T12:35:09.899Z,10.50
2017-12-13T12:37:41.436Z,10.20
2017-12-13T12:40:10.372Z,10.10
2017-12-13T12:42:43.780Z,9.60
2017-12-13T12:45:14.484Z,9.00
2017-12-13T12:47:43.447Z,9.00
2017-12-13T12:50:25.855Z,9.00
2017-12-13T12:52:57.199Z,9.30
2017-12-13T12:55:25.223Z,10.10
2017-12-13T12:57:54.147Z,10.80
2017-12-13T13:00:24.082Z,10.80
2017-12-13T13:02:53.007Z,10.80
2017-12-13T13:05:21.819Z,10.70
2017-12-13T13:07:55.387Z,11.50
2017-12-13T13:10:32.595Z,11.50
2017-12-13T13:13:00.840Z,11.50
2017-12-13T13:15:29.639Z,10.70
2017-12-13T13:18:04.439Z,10.60
2017-12-13T13:20:33.431Z,10.80
2017-12-13T13:23:01.459Z,11.00
2017-12-13T13:25:29.483Z,11.00
2017-12-13T13:27:58.275Z,10.00
2017-12-13T13:30:33.615Z,8.80
2017-12-13T13:33:08.413Z,8.80
2017-12-13T13:35:36.423Z,7.00
2017-12-13T13:38:05.211Z,4.60
2017-12-13T13:40:34.992Z,4.10
2017-12-13T13:43:03.022Z,4.10
2017-12-13T13:45:34.012Z,3.70
2017-12-13T13:48:09.366Z,3.40
2017-12-13T13:50:39.151Z,3.30
2017-12-13T13:53:07.163Z,3.20
2017-12-13T13:55:35.183Z,3.20
2017-12-13T13:58:04.175Z,3.10
2017-12-13T14:00:32.950Z,2.80
2017-12-13T14:03:00.987Z,2.70
2017-12-13T14:05:30.903Z,2.70
2017-12-13T14:07:59.843Z,2.50
2017-12-13T14:10:31.259Z,2.30
2017-12-13T14:13:04.269Z,2.30
2017-12-13T14:15:33.211Z,2.30
2017-12-13T14:18:01.254Z,2.20
2017-12-13T14:20:33.735Z,2.20
2017-12-13T14:23:02.691Z,2.10
2017-12-13T14:25:31.602Z,2.10
2017-12-13T14:27:59.653Z,2.10
2017-12-13T14:30:29.886Z,2.10
2017-12-13T14:33:01.554Z,2.10
2017-12-13T14:35:34.207Z,2.00
2017-12-13T14:38:02.227Z,2.00
2017-12-13T14:40:34.858Z,1.90
2017-12-13T14:43:03.787Z,1.80
2017-12-13T14:45:34.479Z,1.80
2017-12-13T14:48:05.435Z,1.80
2017-12-13T14:50:33.446Z,1.80
2017-12-13T14:53:01.458Z,1.80
2017-12-13T14:55:30.270Z,1.70
2017-12-13T14:57:58.275Z,1.70
2017-12-13T15:00:30.194Z,1.70
2017-12-13T15:03:08.174Z,1.60
2017-12-13T15:05:52.898Z,1.60
2017-12-13T15:08:24.191Z,1.60
2017-12-13T15:10:53.118Z,1.60
2017-12-13T15:13:29.578Z,1.70
2017-12-13T15:15:59.258Z,1.70
2017-12-13T15:18:28.190Z,1.60
2017-12-13T15:20:58.862Z,1.70
2017-12-13T15:23:26.882Z,1.70
2017-12-13T15:26:08.482Z,1.80
2017-12-13T15:28:36.506Z,1.70
2017-12-13T15:31:04.526Z,1.70
2017-12-13T15:33:32.554Z,1.80
2017-12-13T15:36:00.562Z,1.80
2017-12-13T15:38:28.578Z,1.70
2017-12-13T15:40:56.702Z,1.80
2017-12-13T15:43:24.666Z,1.80
2017-12-13T15:46:10.758Z,1.90
2017-12-13T15:48:42.878Z,2.00
2017-12-13T15:51:12.941Z,2.00
2017-12-13T15:53:42.909Z,2.10
2017-12-13T15:56:14.379Z,2.10
2017-12-13T15:58:42.382Z,2.20
2017-12-13T16:01:20.928Z,2.20
2017-12-13T16:03:48.938Z,2.30
2017-12-13T16:06:16.946Z,2.30
2017-12-13T16:08:44.965Z,2.30
2017-12-13T16:11:16.422Z,2.30
2017-12-13T16:13:45.414Z,2.40
2017-12-13T16:16:13.434Z,2.30
2017-12-13T16:18:55.630Z,2.40
2017-12-13T16:21:23.646Z,2.30
2017-12-13T16:23:58.766Z,2.30
2017-12-13T16:26:32.667Z,2.40
2017-12-13T16:29:00.678Z,2.50
2017-12-13T16:31:32.797Z,2.50
2017-12-13T16:34:00.825Z,2.50
2017-12-13T16:36:29.603Z,2.60
2017-12-13T16:38:58.542Z,2.60
2017-12-13T16:41:27.569Z,2.70
2017-12-13T16:43:56.546Z,2.50
2017-12-13T16:46:24.566Z,1.80
2017-12-13T16:49:07.258Z,1.10
2017-12-13T16:51:41.402Z,1.10
2017-12-13T16:54:12.629Z,0.90
2017-12-13T16:56:41.414Z,0.80
2017-12-13T16:59:10.194Z,0.70
2017-12-13T17:01:39.990Z,0.80
2017-12-13T17:04:08.377Z,0.80
2017-12-13T17:06:41.162Z,0.80
2017-12-13T17:09:15.961Z,0.90
2017-12-13T17:11:57.313Z,1.00
2017-12-13T17:14:26.241Z,1.20
2017-12-13T17:17:00.381Z,1.30
2017-12-13T17:19:28.522Z,1.30
2017-12-13T17:22:00.806Z,1.40
2017-12-13T17:24:28.825Z,1.40
2017-12-13T17:29:52.861Z,1.50
2017-12-13T17:32:20.885Z,1.60
2017-12-13T17:34:49.833Z,1.60
2017-12-13T17:37:17.853Z,1.70
2017-12-13T17:39:45.898Z,1.70
2017-12-13T17:42:15.573Z,1.80
2017-12-13T17:44:49.273Z,1.70
2017-12-13T17:47:17.289Z,1.70
2017-12-13T17:49:51.121Z,1.60
2017-12-13T17:52:21.057Z,1.50
2017-12-13T17:54:49.069Z,1.30
2017-12-13T17:57:18.785Z,1.00
2017-12-13T17:59:47.589Z,0.80
2017-12-13T18:02:19.285Z,0.80
2017-12-13T18:04:50.334Z,0.60
2017-12-13T18:07:21.977Z,0.50
2017-12-13T18:09:50.010Z,0.50
2017-12-13T18:12:18.013Z,0.40
2017-12-13T18:14:46.061Z,0.40
2017-12-13T18:17:24.929Z,0.30
2017-12-13T18:19:52.961Z,0.30
2017-12-13T18:22:21.012Z,0.30
2017-12-13T18:24:52.861Z,0.30
2017-12-13T18:27:25.673Z,0.30
2017-12-13T18:29:53.705Z,0.30
2017-12-13T18:32:23.497Z,0.30
2017-12-13T18:34:52.469Z,0.30
2017-12-13T18:37:24.049Z,0.20
2017-12-13T18:39:54.717Z,0.20
2017-12-13T18:42:27.901Z,0.20
2017-12-13T18:44:55.937Z,0.20
2017-12-13T18:47:26.685Z,0.20
2017-12-13T18:49:56.372Z,0.20
2017-12-13T18:52:32.033Z,0.20
2017-12-13T18:55:01.753Z,0.20
2017-12-13T18:57:30.537Z,0.20
2017-12-13T18:59:59.345Z,0.30
2017-12-13T19:02:30.133Z,0.30
2017-12-13T19:05:00.160Z,0.20
2017-12-13T19:07:33.785Z,0.30
2017-12-13T19:10:01.833Z,0.30
2017-12-13T19:12:29.869Z,0.30
2017-12-13T19:15:01.233Z,0.30
2017-12-13T19:17:29.285Z,0.30
2017-12-13T19:19:57.324Z,0.40
2017-12-13T19:22:25.365Z,0.40
2017-12-13T19:25:00.033Z,0.40
2017-12-13T19:27:29.099Z,0.40
2017-12-13T19:29:59.868Z,0.40
2017-12-13T19:32:27.901Z,0.40
2017-12-13T19:34:58.732Z,0.40
2017-12-13T19:37:31.056Z,0.40
2017-12-13T19:39:59.901Z,0.40
2017-12-13T19:42:27.892Z,0.40
2017-12-13T19:44:56.242Z,0.40
2017-12-13T19:47:31.276Z,0.50
2017-12-13T19:50:07.180Z,0.50
2017-12-13T19:52:36.140Z,0.50
2017-12-13T19:55:04.220Z,0.50
2017-12-13T19:57:38.816Z,0.50
2017-12-13T20:00:06.848Z,0.50
2017-12-13T20:02:38.496Z,0.50
2017-12-13T20:05:06.532Z,0.50
2017-12-13T20:07:34.549Z,0.50
2017-12-13T20:10:02.600Z,0.50
2017-12-13T20:12:30.628Z,0.50
2017-12-13T20:15:15.084Z,0.50
2017-12-13T20:17:43.859Z,0.60
2017-12-13T20:20:12.659Z,0.60
2017-12-13T20:22:41.639Z,0.60
2017-12-13T20:25:10.415Z,0.60
2017-12-13T20:27:39.219Z,0.60
2017-12-13T20:30:07.263Z,0.60
2017-12-13T20:32:41.091Z,0.60
2017-12-13T20:35:09.947Z,0.70
2017-12-13T20:37:39.954Z,0.60
2017-12-13T20:40:10.203Z,0.70
2017-12-13T20:42:39.071Z,0.70
2017-12-13T20:45:07.359Z,0.70
2017-12-13T20:47:42.135Z,0.70
2017-12-13T20:50:14.839Z,0.70
2017-12-13T20:52:43.294Z,0.70
2017-12-13T20:55:11.318Z,0.70
2017-12-13T20:57:41.035Z,0.80
2017-12-13T21:00:09.855Z,0.80
2017-12-13T21:02:37.863Z,0.70
2017-12-13T21:05:05.879Z,0.80
2017-12-13T21:07:33.909Z,0.80
2017-12-13T21:10:05.543Z,0.80
2017-12-13T21:12:34.487Z,0.80
2017-12-13T21:15:04.256Z,0.80
2017-12-13T21:17:32.285Z,0.80
2017-12-13T21:20:00.310Z,0.90
2017-12-13T21:22:28.326Z,0.90
2017-12-13T21:24:56.343Z,0.90
2017-12-13T21:27:27.002Z,1.10
2017-12-13T21:29:56.794Z,1.10
2017-12-13T21:32:24.811Z,1.00
2017-12-13T21:34:52.836Z,1.10
2017-12-13T21:37:20.847Z,1.10
2017-12-13T21:39:48.854Z,1.10
2017-12-13T21:42:17.846Z,1.20
2017-12-13T21:44:45.858Z,1.10
2017-12-13T21:47:13.875Z,1.10
2017-12-13T21:49:43.902Z,1.10
2017-12-13T21:52:15.638Z,1.10
2017-12-13T21:54:45.590Z,1.00
2017-12-13T21:57:20.298Z,1.00
2017-12-13T22:00:07.487Z,1.00
2017-12-13T22:02:37.430Z,1.00
2017-12-13T22:05:06.339Z,1.00
2017-12-13T22:07:34.373Z,1.10
2017-12-13T22:10:03.376Z,1.10
2017-12-13T22:12:31.395Z,1.10
2017-12-13T22:15:03.419Z,1.10
2017-12-13T22:17:31.439Z,1.00
2017-12-13T22:20:00.371Z,1.10
2017-12-13T22:22:29.169Z,1.20
2017-12-13T22:24:57.178Z,1.10
2017-12-13T22:27:25.289Z,1.20
2017-12-13T22:29:54.199Z,1.30
2017-12-13T22:32:26.864Z,1.40
2017-12-13T22:34:58.738Z,1.40
2017-12-13T22:37:30.391Z,1.50
2017-12-13T22:39:58.415Z,1.60
2017-12-13T22:42:27.327Z,1.60
2017-12-13T22:44:55.339Z,1.70
2017-12-13T22:47:23.451Z,1.70
2017-12-13T22:49:51.467Z,1.70
2017-12-13T22:52:20.429Z,1.70
2017-12-13T22:54:48.445Z,1.60
2017-12-13T22:57:18.128Z,1.70
2017-12-13T22:59:46.136Z,1.60
2017-12-13T23:02:15.904Z,1.70
2017-12-13T23:04:47.644Z,1.60
2017-12-13T23:07:18.961Z,1.70
2017-12-13T23:09:48.301Z,1.60
2017-12-13T23:12:16.305Z,1.70
2017-12-13T23:14:47.008Z,1.70
2017-12-13T23:17:15.024Z,1.60
2017-12-13T23:19:49.158Z,1.70
2017-12-13T23:22:17.161Z,1.70
2017-12-13T23:24:45.169Z,1.70
2017-12-13T23:27:14.927Z,1.80
2017-12-13T23:29:43.637Z,1.80
2017-12-13T23:32:14.765Z,1.70
2017-12-13T23:34:43.749Z,1.80
2017-12-13T23:37:12.653Z,1.80
2017-12-13T23:39:41.565Z,1.80
2017-12-13T23:42:14.229Z,1.80
2017-12-13T23:44:48.605Z,1.80
2017-12-13T23:47:16.613Z,1.80
2017-12-13T23:49:45.505Z,1.80
2017-12-13T23:52:16.836Z,1.90
2017-12-13T23:54:44.842Z,2.00
2017-12-13T23:57:13.663Z,2.10
2017-12-13T23:59:41.636Z,2.10
